Time;durP1;ratioP1;P1;durP2;ratioP2;P2;SDS_P1;SDS_P2;PMS_P1;PMS_P2;Temp;Humidity;BMP_temperature;BMP_pressure;BME280_temperature;BME280_humidity;BME280_pressure;Samples;Min_cycle;Max_cycle;Signal;HPM_P1;HPM_P2
2024/01/26 00:03:22;;;;;;;26.98;11.77;;;;;;;9.82;100.00;100798.50;12205089;19;20035;-83
2024/01/26 00:07:24;;;;;;;24.93;10.83;;;;;;;9.85;100.00;100797.22;12208024;19;20913;-82
2024/01/26 00:11:27;;;;;;;25.58;11.18;;;;;;;9.82;100.00;100796.59;12182196;19;20034;-81
2024/01/26 00:15:29;;;;;;;24.60;10.87;;;;;;;9.83;100.00;100797.44;12207111;19;20002;-82
2024/01/26 00:19:31;;;;;;;33.37;11.53;;;;;;;9.79;100.00;100796.19;12199432;19;20352;-81
2024/01/26 00:23:34;;;;;;;31.70;11.68;;;;;;;9.82;100.00;100795.75;12205273;19;20553;-81
2024/01/26 00:27:36;;;;;;;26.98;11.20;;;;;;;9.78;100.00;100784.31;12206578;19;20006;-83
2024/01/26 00:31:38;;;;;;;28.63;10.93;;;;;;;9.78;100.00;100775.22;12183821;19;20353;-83
2024/01/26 00:35:40;;;;;;;22.90;10.60;;;;;;;9.72;100.00;100770.59;12206001;19;20007;-84
2024/01/26 00:39:41;;;;;;;29.08;11.82;;;;;;;9.70;100.00;100779.09;12203026;19;20014;-84
2024/01/26 00:43:43;;;;;;;25.58;10.50;;;;;;;9.71;100.00;100777.19;12180982;19;20014;-82
2024/01/26 00:47:45;;;;;;;28.98;11.18;;;;;;;9.70;100.00;100770.00;12204432;19;20452;-82
2024/01/26 00:51:47;;;;;;;32.75;11.63;;;;;;;9.70;100.00;100764.50;12205235;19;20007;-83
2024/01/26 00:55:49;;;;;;;33.03;12.35;;;;;;;9.70;100.00;100764.50;12189100;19;20754;-81
2024/01/26 00:59:51;;;;;;;32.97;11.93;;;;;;;9.72;100.00;100774.19;12216861;19;20021;-83
2024/01/26 01:03:53;;;;;;;28.67;11.95;;;;;;;9.71;100.00;100768.94;12253191;19;20010;-83
2024/01/26 01:07:55;;;;;;;30.45;11.68;;;;;;;9.73;100.00;100766.81;12203212;19;20102;-82
2024/01/26 01:11:58;;;;;;;31.53;12.03;;;;;;;9.75;100.00;100765.50;12213416;19;20003;-83
2024/01/26 01:16:00;;;;;;;33.97;11.65;;;;;;;9.75;100.00;100767.41;12213015;19;20044;-83
2024/01/26 01:20:04;;;;;;;;;;;;;;;9.78;100.00;100762.31;12193839;19;20088;-81
2024/01/26 01:24:06;;;;;;;28.92;11.70;;;;;;;9.80;100.00;100759.34;12212789;19;20125;-84
2024/01/26 01:28:09;;;;;;;22.23;8.80;;;;;;;9.80;100.00;100757.44;12207666;19;20021;-82
2024/01/26 01:32:10;;;;;;;28.15;11.63;;;;;;;9.82;100.00;100759.97;12185148;19;20010;-84
2024/01/26 01:36:12;;;;;;;20.08;7.97;;;;;;;9.85;100.00;100754.03;12204123;19;20009;-84
2024/01/26 01:40:14;;;;;;;26.30;10.37;;;;;;;9.89;100.00;100751.66;12206002;19;20010;-84
2024/01/26 01:44:16;;;;;;;26.90;11.07;;;;;;;9.92;100.00;100748.47;12186615;19;20561;-84
2024/01/26 01:48:19;;;;;;;23.15;11.25;;;;;;;9.94;100.00;100749.94;12209693;19;20007;-85
2024/01/26 01:52:26;;;;;;;25.15;11.38;;;;;;;10.02;100.00;100755.19;12217952;19;20030;-84
2024/01/26 01:56:29;;;;;;;21.55;9.90;;;;;;;10.07;100.00;100756.41;12204763;19;20007;-81
2024/01/26 02:00:32;;;;;;;22.02;10.05;;;;;;;10.08;100.00;100747.06;12210464;19;20091;-84
2024/01/26 02:04:34;;;;;;;22.67;9.75;;;;;;;10.06;100.00;100732.69;12190197;19;20843;-82
2024/01/26 02:08:36;;;;;;;22.27;10.00;;;;;;;10.12;100.00;100731.81;12209828;19;20477;-82
2024/01/26 02:12:38;;;;;;;20.05;8.35;;;;;;;10.15;100.00;100734.94;12204962;19;20022;-83
2024/01/26 02:16:39;;;;;;;18.05;8.68;;;;;;;10.15;100.00;100723.09;12178324;19;20031;-84
2024/01/26 02:20:41;;;;;;;14.57;6.35;;;;;;;10.18;100.00;100728.16;12210153;19;20603;-84
2024/01/26 02:24:53;;;;;;;17.42;6.72;;;;;;;10.22;100.00;100721.94;12224307;19;20015;-82
2024/01/26 02:28:55;;;;;;;14.20;6.90;;;;;;;10.29;100.00;100726.59;12204482;19;20011;-82
2024/01/26 02:32:57;;;;;;;11.85;6.00;;;;;;;10.31;100.00;100727.22;12219363;19;20018;-83
2024/01/26 02:36:59;;;;;;;12.98;6.15;;;;;;;10.32;100.00;100717.88;12221274;19;20014;-83
2024/01/26 02:41:01;;;;;;;14.90;6.95;;;;;;;10.34;100.00;100716.56;12202232;19;20380;-84
2024/01/26 02:45:03;;;;;;;15.10;7.68;;;;;;;10.37;100.00;100718.88;12225412;19;19999;-83
2024/01/26 02:49:05;;;;;;;16.15;7.30;;;;;;;10.39;100.00;100713.16;12230192;19;20018;-83
2024/01/26 02:53:07;;;;;;;;;;;;;;;10.35;100.00;100707.25;12225320;19;20069;-83
2024/01/26 02:57:09;;;;;;;15.55;7.57;;;;;;;10.37;100.00;100699.59;12240275;19;19922;-83
2024/01/26 03:01:11;;;;;;;16.13;7.97;;;;;;;10.31;100.00;100700.50;12239436;19;20773;-84
2024/01/26 03:05:13;;;;;;;10.63;5.45;;;;;;;10.24;100.00;100694.19;12214526;19;20099;-81
2024/01/26 03:09:15;;;;;;;17.25;8.55;;;;;;;10.28;100.00;100692.69;12212006;19;20011;-83
2024/01/26 03:13:18;;;;;;;18.87;8.97;;;;;;;10.29;100.00;100696.28;12212811;19;20007;-82
2024/01/26 03:17:19;;;;;;;20.95;9.32;;;;;;;10.32;100.00;100699.44;12183315;19;20002;-83
2024/01/26 03:21:21;;;;;;;20.43;9.83;;;;;;;10.31;100.00;100697.75;12207209;19;20029;-83
2024/01/26 03:25:23;;;;;;;13.82;6.45;;;;;;;10.35;100.00;100689.84;12214233;19;20018;-84
2024/01/26 03:29:25;;;;;;;22.73;9.52;;;;;;;10.35;100.00;100699.00;12190128;19;20003;-85
2024/01/26 03:33:26;;;;;;;20.83;10.43;;;;;;;10.29;100.00;100683.34;12208927;19;20014;-82
2024/01/26 03:37:29;;;;;;;25.63;10.67;;;;;;;10.30;100.00;100695.22;12209245;19;20010;-84
2024/01/26 03:41:30;;;;;;;21.15;10.10;;;;;;;10.29;100.00;100694.38;12185296;19;20026;-82
2024/01/26 03:45:32;;;;;;;16.77;9.15;;;;;;;10.27;100.00;100694.59;12214073;19;20038;-83
2024/01/26 03:49:34;;;;;;;20.83;9.20;;;;;;;10.29;100.00;100699.88;12200128;19;20022;-83
2024/01/26 03:53:36;;;;;;;16.83;9.00;;;;;;;10.29;100.00;100691.59;12221308;19;20010;-84
2024/01/26 03:57:38;;;;;;;19.13;8.70;;;;;;;10.29;100.00;100688.84;12216836;19;20002;-82
2024/01/26 04:01:43;;;;;;;19.00;8.95;;;;;;;10.31;100.00;100691.41;12192806;19;20103;-82
2024/01/26 04:05:45;;;;;;;20.07;8.73;;;;;;;10.32;100.00;100693.94;12214459;19;20022;-82
2024/01/26 04:09:47;;;;;;;15.47;7.53;;;;;;;10.32;100.00;100696.69;12213118;19;20122;-83
2024/01/26 04:13:49;;;;;;;16.40;8.13;;;;;;;10.33;100.00;100686.50;12194390;19;20006;-83
2024/01/26 04:17:50;;;;;;;15.10;7.53;;;;;;;10.30;100.00;100689.72;12215964;19;20010;-81
2024/01/26 04:21:52;;;;;;;14.43;8.00;;;;;;;10.31;100.00;100688.66;12217933;19;20039;-81
2024/01/26 04:25:54;;;;;;;14.10;6.10;;;;;;;10.33;100.00;100701.13;12224153;19;20006;-84
2024/01/26 04:29:56;;;;;;;12.68;6.75;;;;;;;10.31;100.00;100714.28;12057476;19;3435917;-82
2024/01/26 04:33:58;;;;;;;12.40;6.90;;;;;;;10.31;100.00;100706.00;12226190;19;20006;-84
2024/01/26 04:38:00;;;;;;;9.82;5.90;;;;;;;10.22;100.00;100702.66;12201792;19;20010;-84
2024/01/26 04:42:02;;;;;;;10.90;5.95;;;;;;;10.30;100.00;100693.31;12221635;19;20010;-85
2024/01/26 04:46:04;;;;;;;15.10;6.80;;;;;;;10.32;100.00;100691.19;12218482;19;20089;-83
2024/01/26 04:50:06;;;;;;;14.27;5.57;;;;;;;10.25;100.00;100682.94;12198839;19;19999;-84
2024/01/26 04:54:08;;;;;;;10.07;5.47;;;;;;;10.18;100.00;100692.34;12221613;19;20323;-84
2024/01/26 04:58:10;;;;;;;8.20;4.55;;;;;;;10.12;100.00;100683.06;12222639;19;20117;-85
2024/01/26 05:02:12;;;;;;;11.00;5.20;;;;;;;10.17;100.00;100674.09;12204711;19;20381;-82
2024/01/26 05:06:14;;;;;;;9.63;4.70;;;;;;;10.16;100.00;100677.94;12228014;19;19998;-81
2024/01/26 05:10:16;;;;;;;9.63;4.60;;;;;;;10.14;100.00;100671.81;12238022;19;20362;-81
2024/01/26 05:14:18;;;;;;;10.38;4.68;;;;;;;10.13;100.00;100661.88;12231332;19;20017;-84
2024/01/26 05:18:19;;;;;;;8.40;4.90;;;;;;;10.17;100.00;100660.34;12252724;19;20034;-86
2024/01/26 05:22:21;;;;;;;7.67;3.87;;;;;;;10.15;100.00;100668.00;12234145;19;20009;-86
2024/01/26 05:26:24;;;;;;;9.50;3.95;;;;;;;10.16;100.00;100664.16;12190407;19;20007;-85
2024/01/26 05:30:26;;;;;;;7.68;4.07;;;;;;;10.17;100.00;100663.97;12209546;19;20021;-82
2024/01/26 05:34:28;;;;;;;7.68;4.28;;;;;;;10.22;100.00;100663.25;12215190;19;20014;-82
2024/01/26 05:38:30;;;;;;;8.47;4.07;;;;;;;10.23;100.00;100664.94;12191895;19;20550;-83
2024/01/26 05:42:32;;;;;;;10.50;4.15;;;;;;;10.18;100.00;100664.78;12217152;19;20002;-84
2024/01/26 05:46:34;;;;;;;5.13;2.97;;;;;;;10.19;100.00;100669.22;12204124;19;20011;-83
2024/01/26 05:50:37;;;;;;;10.37;5.27;;;;;;;10.25;100.00;100676.59;12214820;19;20006;-85
2024/01/26 05:54:38;;;;;;;10.35;4.75;;;;;;;10.22;100.00;100672.38;12216814;19;20453;-86
2024/01/26 05:58:40;;;;;;;6.90;3.88;;;;;;;10.23;100.00;100678.72;12194341;19;20010;-83
2024/01/26 06:02:42;;;;;;;7.72;4.82;;;;;;;10.19;100.00;100688.50;12218839;19;20034;-84
2024/01/26 06:06:44;;;;;;;11.40;6.07;;;;;;;10.19;100.00;100692.09;12221826;19;20014;-86
2024/01/26 06:10:46;;;;;;;9.82;5.68;;;;;;;10.22;100.00;100693.56;12197682;19;20038;-81
2024/01/26 06:14:48;;;;;;;8.37;4.17;;;;;;;10.14;100.00;100689.19;12217179;19;20115;-81
2024/01/26 06:18:50;;;;;;;11.75;6.65;;;;;;;10.10;100.00;100678.84;12213406;19;20014;-85
2024/01/26 06:22:52;;;;;;;10.07;5.80;;;;;;;10.11;100.00;100683.28;12188019;19;20042;-81
2024/01/26 06:26:55;;;;;;;9.05;5.63;;;;;;;10.09;100.00;100664.25;12218021;19;20006;-81
2024/01/26 06:30:57;;;;;;;13.23;6.93;;;;;;;10.07;100.00;100663.63;12211238;19;20010;-82
2024/01/26 06:34:59;;;;;;;11.70;6.87;;;;;;;10.09;100.00;100657.91;12187343;19;20010;-81
2024/01/26 06:39:02;;;;;;;13.35;6.65;;;;;;;10.11;100.00;100652.97;12203022;19;20038;-80
2024/01/26 06:43:08;;;;;;;13.52;7.40;;;;;;;10.15;100.00;100662.50;12206120;19;20003;-82
2024/01/26 06:47:10;;;;;;;14.00;7.65;;;;;;;10.11;100.00;100669.50;12193946;19;20100;-82
2024/01/26 06:51:12;;;;;;;14.35;7.95;;;;;;;10.15;100.00;100668.00;12212376;19;20009;-80
2024/01/26 06:55:13;;;;;;;16.23;8.67;;;;;;;10.11;100.00;100683.28;12219498;19;20038;-81
2024/01/26 06:59:16;;;;;;;15.00;7.40;;;;;;;10.08;100.00;100689.22;12199198;19;20010;-79
2024/01/26 07:03:18;;;;;;;19.00;8.70;;;;;;;10.03;100.00;100685.25;12214727;19;20231;-80
2024/01/26 07:07:20;;;;;;;15.02;8.48;;;;;;;10.01;100.00;100681.88;12198383;19;20011;-79
2024/01/26 07:11:24;;;;;;;20.05;9.23;;;;;;;10.04;100.00;100662.16;12184117;19;20091;-78
2024/01/26 07:15:26;;;;;;;16.27;9.48;;;;;;;10.01;100.00;100684.63;12207951;19;20006;-79
2024/01/26 07:19:28;;;;;;;17.92;8.65;;;;;;;10.04;100.00;100670.41;12199404;19;20023;-79
2024/01/26 07:23:30;;;;;;;17.05;8.50;;;;;;;10.02;100.00;100649.66;12157395;19;20010;-81
2024/01/26 07:27:32;;;;;;;19.90;8.80;;;;;;;10.03;100.00;100643.94;12207894;19;20011;-80
2024/01/26 07:31:33;;;;;;;13.32;7.82;;;;;;;10.11;100.00;100648.31;12188356;19;20049;-80
2024/01/26 07:35:35;;;;;;;15.07;8.95;;;;;;;10.16;100.00;100664.16;12206501;19;20007;-80
2024/01/26 07:39:37;;;;;;;16.83;8.63;;;;;;;10.22;100.00;100671.53;12204105;19;20027;-79
2024/01/26 07:43:39;;;;;;;14.57;8.52;;;;;;;10.22;100.00;100655.84;12189183;19;20007;-80
2024/01/26 07:47:41;;;;;;;14.48;7.78;;;;;;;10.18;100.00;100637.25;12209940;19;20451;-80
2024/01/26 07:51:42;;;;;;;17.13;9.27;;;;;;;10.27;100.00;100619.41;12210876;19;20063;-78
2024/01/26 07:55:44;;;;;;;17.38;9.52;;;;;;;10.31;100.00;100606.00;12187290;19;20284;-78
2024/01/26 07:59:48;;;;;;;14.27;7.35;;;;;;;10.32;100.00;100599.41;12208173;19;20076;-78
2024/01/26 08:03:50;;;;;;;13.20;7.07;;;;;;;10.42;100.00;100602.50;12212780;19;20097;-78
2024/01/26 08:07:52;;;;;;;9.87;5.30;;;;;;;10.39;100.00;100590.00;12187704;19;20490;-78
2024/01/26 08:11:54;;;;;;;7.72;4.82;;;;;;;10.41;100.00;100601.66;12210718;19;20019;-80
2024/01/26 08:15:56;;;;;;;8.07;4.53;;;;;;;10.46;100.00;100588.00;12211124;19;20119;-79
2024/01/26 08:19:58;;;;;;;6.75;3.83;;;;;;;10.53;100.00;100587.94;12184922;19;20010;-82
2024/01/26 08:24:01;;;;;;;8.35;3.80;;;;;;;10.60;100.00;100598.88;12211420;19;20502;-79
2024/01/26 08:28:03;;;;;;;7.82;4.30;;;;;;;10.63;100.00;100599.25;12212756;19;20074;-79
2024/01/26 08:32:05;;;;;;;9.73;3.70;;;;;;;10.70;100.00;100597.25;12180264;19;20027;-80
2024/01/26 08:36:07;;;;;;;6.22;4.03;;;;;;;10.72;100.00;100602.53;12206206;19;20007;-79
2024/01/26 08:40:09;;;;;;;7.30;4.13;;;;;;;10.74;100.00;100589.38;12204004;19;20035;-81
2024/01/26 08:44:11;;;;;;;6.90;3.60;;;;;;;10.72;100.00;100597.88;12186762;19;20002;-80
2024/01/26 08:48:13;;;;;;;6.70;3.80;;;;;;;10.65;100.00;100601.81;12211173;19;20006;-79
2024/01/26 08:52:16;;;;;;;9.15;5.00;;;;;;;10.60;100.00;100576.84;12213872;19;20513;-80
2024/01/26 08:56:18;;;;;;;6.95;3.72;;;;;;;10.55;100.00;100563.75;12191345;19;20007;-80
2024/01/26 09:00:21;;;;;;;7.97;3.58;;;;;;;10.53;100.00;100559.53;12209245;19;20019;-80
2024/01/26 09:04:22;;;;;;;8.23;4.20;;;;;;;10.56;100.00;100570.09;12211349;19;20018;-79
2024/01/26 09:08:24;;;;;;;5.60;3.50;;;;;;;10.58;100.00;100559.69;12189545;19;20026;-80
2024/01/26 09:12:26;;;;;;;8.15;3.97;;;;;;;10.56;100.00;100548.91;12209436;19;20019;-80
2024/01/26 09:16:28;;;;;;;7.35;3.45;;;;;;;10.53;100.00;100551.25;12215898;19;20002;-81
2024/01/26 09:20:30;;;;;;;4.22;2.60;;;;;;;10.54;100.00;100545.53;12187987;19;20637;-80
2024/01/26 09:24:32;;;;;;;8.43;4.20;;;;;;;10.53;100.00;100537.47;12211550;19;20007;-80
2024/01/26 09:28:33;;;;;;;10.75;6.25;;;;;;;10.49;100.00;100534.34;12204947;19;20011;-81
2024/01/26 09:32:36;;;;;;;10.23;5.77;;;;;;;10.51;100.00;100531.38;12208035;19;20073;-82
2024/01/26 09:36:38;;;;;;;8.45;4.90;;;;;;;10.41;100.00;100507.97;12225651;19;20066;-82
2024/01/26 09:40:42;;;;;;;8.20;3.45;;;;;;;10.45;100.00;100520.22;12182783;19;20007;-82
2024/01/26 09:44:44;;;;;;;10.85;4.80;;;;;;;10.46;100.00;100518.28;12201180;19;20007;-82
2024/01/26 09:48:52;;;;;;;8.30;4.23;;;;;;;10.45;100.00;100519.38;12204617;19;20007;-84
2024/01/26 09:52:55;;;;;;;7.75;4.03;;;;;;;10.39;100.00;100515.63;12180600;19;20023;-85
2024/01/26 09:56:57;;;;;;;6.40;3.38;;;;;;;10.40;100.00;100520.03;12213730;19;20003;-84
2024/01/26 10:00:59;;;;;;;6.90;4.20;;;;;;;10.36;100.00;100521.59;12218863;19;19994;-85
2024/01/26 10:05:01;;;;;;;10.10;3.83;;;;;;;10.31;100.00;100520.59;12199626;19;20107;-82
2024/01/26 10:09:04;;;;;;;5.85;3.33;;;;;;;10.29;100.00;100523.56;12221467;19;20780;-79
2024/01/26 10:13:06;;;;;;;7.72;3.35;;;;;;;10.35;100.00;100525.44;12229852;19;20014;-81
2024/01/26 10:17:08;;;;;;;10.45;4.22;;;;;;;10.29;100.00;100525.50;12198891;19;20009;-82
2024/01/26 10:21:11;;;;;;;6.50;3.77;;;;;;;10.29;100.00;100537.34;12207870;19;20018;-82
2024/01/26 10:25:14;;;;;;;7.68;3.80;;;;;;;10.26;100.00;100532.25;12210249;19;20299;-83
2024/01/26 10:29:16;;;;;;;9.98;4.40;;;;;;;10.26;100.00;100532.25;12176535;19;20007;-82
2024/01/26 10:33:22;;;;;;;8.43;4.53;;;;;;;10.23;100.00;100532.72;12193863;19;20023;-81
2024/01/26 10:37:29;;;;;;;10.57;4.43;;;;;;;10.17;100.00;100517.13;12197684;19;20007;-79
2024/01/26 10:41:39;;;;;;;8.65;4.13;;;;;;;10.16;100.00;100512.69;12172805;19;20019;-80
2024/01/26 10:45:41;;;;;;;10.68;4.93;;;;;;;10.18;100.00;100505.06;12208664;19;20083;-81
2024/01/26 10:49:49;;;;;;;7.03;4.33;;;;;;;10.13;100.00;100507.66;12184818;19;20010;-81
2024/01/26 10:53:52;;;;;;;6.90;3.83;;;;;;;10.16;100.00;100499.75;12213005;19;20002;-84
2024/01/26 10:57:54;;;;;;;9.35;4.53;;;;;;;10.20;100.00;100495.50;12211888;19;20384;-82
2024/01/26 11:01:56;;;;;;;9.07;4.15;;;;;;;10.26;100.00;100497.34;12187057;19;20014;-83
2024/01/26 11:05:58;;;;;;;10.68;4.18;;;;;;;10.34;100.00;100493.44;12209121;19;20078;-82
2024/01/26 11:10:25;;;;;;;8.30;4.10;;;;;;;10.38;100.00;100483.66;12206692;19;20007;-82
2024/01/26 11:14:27;;;;;;;8.82;4.10;;;;;;;10.43;100.00;100469.16;12183782;19;20003;-83
2024/01/26 11:18:35;;;;;;;8.10;4.38;;;;;;;10.45;100.00;100461.50;12204819;19;20010;-85
2024/01/26 11:22:37;;;;;;;12.13;4.43;;;;;;;10.51;100.00;100460.56;12181748;19;20077;-84
2024/01/26 11:26:39;;;;;;;6.57;3.72;;;;;;;10.49;100.00;100459.94;12209512;19;20031;-84
2024/01/26 11:30:41;;;;;;;5.80;3.80;;;;;;;10.57;100.00;100456.03;12209655;19;20416;-83
2024/01/26 11:34:44;;;;;;;7.72;3.30;;;;;;;10.59;100.00;100459.38;12179562;19;20367;-83
2024/01/26 11:38:53;;;;;;;7.50;3.58;;;;;;;10.61;100.00;100457.25;12204298;19;20119;-85
2024/01/26 11:42:55;;;;;;;5.50;3.28;;;;;;;10.70;100.00;100453.91;12205087;19;20605;-83
2024/01/26 11:46:57;;;;;;;5.65;2.65;;;;;;;10.77;100.00;100434.53;12186078;19;20014;-85
2024/01/26 11:51:01;;;;;;;5.07;2.63;;;;;;;10.99;100.00;100433.97;12202782;19;20026;-85
2024/01/26 11:55:05;;;;;;;5.63;3.00;;;;;;;11.15;100.00;100444.28;12203461;19;20006;-84
2024/01/26 11:59:08;;;;;;;8.65;2.95;;;;;;;11.38;100.00;100438.78;12182728;19;20002;-83
2024/01/26 12:03:13;;;;;;;5.00;2.83;;;;;;;11.43;100.00;100432.56;12223005;19;20032;-84
2024/01/26 12:07:16;;;;;;;4.70;2.53;;;;;;;11.46;100.00;100443.13;12208980;19;20011;-84
2024/01/26 12:11:18;;;;;;;3.65;2.25;;;;;;;11.48;100.00;100440.97;12190355;19;20006;-83
2024/01/26 12:15:20;;;;;;;4.30;2.10;;;;;;;11.51;100.00;100434.09;12214176;19;20028;-83
2024/01/26 12:19:22;;;;;;;4.80;2.23;;;;;;;11.49;100.00;100441.81;12217597;19;20010;-83
2024/01/26 12:23:32;;;;;;;3.63;2.00;;;;;;;11.46;100.00;100432.09;12198303;19;20232;-83
2024/01/26 12:27:34;;;;;;;4.53;1.90;;;;;;;11.49;100.00;100436.28;12240015;19;20007;-81
2024/01/26 12:31:37;;;;;;;2.28;1.63;;;;;;;11.43;100.00;100429.81;12216754;19;20007;-82
2024/01/26 12:35:42;;;;;;;4.70;1.60;;;;;;;11.46;100.00;100422.97;12222536;19;20006;-83
2024/01/26 12:39:43;;;;;;;6.40;1.83;;;;;;;11.50;100.00;100433.28;12206951;19;20006;-83
2024/01/26 12:43:45;;;;;;;3.15;1.55;;;;;;;11.60;100.00;100428.00;12183360;19;20426;-82
2024/01/26 12:47:47;;;;;;;3.53;1.40;;;;;;;11.63;100.00;100422.00;12202247;19;20002;-83
2024/01/26 12:51:54;;;;;;;2.60;1.13;;;;;;;11.69;100.00;100419.31;12210007;19;20002;-83
2024/01/26 12:55:56;;;;;;;2.25;1.35;;;;;;;11.77;100.00;100427.25;12185990;19;20031;-82
2024/01/26 12:59:57;;;;;;;1.80;1.40;;;;;;;11.76;100.00;100415.38;12210830;19;20018;-82
2024/01/26 13:03:59;;;;;;;2.45;1.40;;;;;;;11.82;100.00;100419.09;12211033;19;20006;-83
2024/01/26 13:08:01;;;;;;;2.50;1.63;;;;;;;11.85;100.00;100408.41;12202081;19;20477;-81
2024/01/26 13:12:03;;;;;;;1.92;1.15;;;;;;;12.06;100.00;100404.16;12227331;19;19998;-82
2024/01/26 13:16:05;;;;;;;2.17;1.38;;;;;;;12.10;100.00;100398.97;12226716;19;20007;-81
2024/01/26 13:20:11;;;;;;;2.63;1.77;;;;;;;12.06;100.00;100406.06;12189444;19;20014;-81
2024/01/26 13:24:22;;;;;;;2.30;1.10;;;;;;;12.04;100.00;100411.00;12209562;19;20066;-83
2024/01/26 13:28:24;;;;;;;2.58;1.20;;;;;;;12.03;100.00;100420.38;12220115;19;20010;-80
2024/01/26 13:32:26;;;;;;;2.07;1.40;;;;;;;12.04;100.00;100411.00;12188757;19;20575;-82
2024/01/26 13:36:28;;;;;;;1.50;1.10;;;;;;;12.00;100.00;100424.47;12200345;19;20002;-82
2024/01/26 13:40:30;;;;;;;4.57;1.25;;;;;;;12.01;100.00;100428.91;12207072;19;20011;-81
2024/01/26 13:44:32;;;;;;;2.35;1.38;;;;;;;12.03;100.00;100434.19;12183793;19;20346;-81
2024/01/26 13:48:34;;;;;;;2.20;1.20;;;;;;;12.07;100.00;100438.97;12208078;19;20006;-81
2024/01/26 13:52:36;;;;;;;1.55;1.20;;;;;;;12.08;100.00;100450.88;12179569;19;20007;-82
2024/01/26 13:56:38;;;;;;;4.60;1.57;;;;;;;11.88;100.00;100462.31;12199800;19;20477;-83
2024/01/26 14:00:40;;;;;;;0.70;0.63;;;;;;;11.83;100.00;100521.00;12195413;19;20046;-79
2024/01/26 14:04:42;;;;;;;1.03;0.80;;;;;;;11.69;100.00;100521.47;12174898;19;20026;-81
2024/01/26 14:08:44;;;;;;;1.73;1.05;;;;;;;11.62;100.00;100524.34;12194211;19;20020;-83
2024/01/26 14:12:46;;;;;;;3.20;0.90;;;;;;;11.65;100.00;100515.59;12195369;19;20006;-80
2024/01/26 14:16:48;;;;;;;2.88;0.90;;;;;;;11.52;100.00;100529.66;12174361;19;20017;-79
2024/01/26 14:20:53;;;;;;;1.33;0.53;;;;;;;11.28;100.00;100559.13;12207888;19;20015;-81
2024/01/26 14:24:55;;;;;;;2.40;0.93;;;;;;;11.04;100.00;100578.34;12210361;19;20006;-81
2024/01/26 14:28:57;;;;;;;6.23;1.83;;;;;;;10.64;100.00;100627.66;12189241;19;20010;-81
2024/01/26 14:32:58;;;;;;;3.40;0.98;;;;;;;10.27;100.00;100616.63;12209747;19;20007;-80
2024/01/26 14:37:01;;;;;;;3.27;1.00;;;;;;;10.03;100.00;100638.44;12211749;19;20605;-79
2024/01/26 14:41:03;;;;;;;2.55;1.25;;;;;;;9.96;100.00;100645.06;12190947;19;20003;-81
2024/01/26 14:45:06;;;;;;;6.20;1.67;;;;;;;9.94;100.00;100652.72;12216706;19;20014;-79
2024/01/26 14:49:09;;;;;;;3.33;0.95;;;;;;;9.80;100.00;100674.84;12222146;19;20417;-81
2024/01/26 14:53:11;;;;;;;1.92;1.17;;;;;;;9.93;100.00;100687.66;12201764;19;21033;-80
2024/01/26 14:57:13;;;;;;;8.27;1.35;;;;;;;10.05;100.00;100707.03;12221335;19;20044;-82
2024/01/26 15:01:16;;;;;;;5.30;1.58;;;;;;;10.02;100.00;100718.50;12223789;19;20021;-81
2024/01/26 15:05:22;;;;;;;5.53;1.02;;;;;;;10.00;100.00;100738.03;12196974;19;20018;-83
2024/01/26 15:09:24;;;;;;;10.80;1.45;;;;;;;9.88;100.00;100767.34;12213478;19;20015;-82
2024/01/26 15:13:26;;;;;;;5.80;0.98;;;;;;;9.85;100.00;100776.03;12213289;19;20014;-78
2024/01/26 15:17:28;;;;;;;3.10;1.30;;;;;;;9.81;100.00;100794.06;12194520;19;20014;-81
2024/01/26 15:21:30;;;;;;;4.57;1.23;;;;;;;9.79;98.59;100804.47;12211106;19;20074;-81
2024/01/26 15:25:32;;;;;;;2.93;0.90;;;;;;;9.67;100.00;100814.47;12209104;19;20256;-81
2024/01/26 15:29:34;;;;;;;6.68;1.30;;;;;;;9.62;100.00;100814.28;12193736;19;20010;-80
2024/01/26 15:33:36;;;;;;;4.93;1.48;;;;;;;9.51;94.85;100819.41;12217603;19;20006;-80
2024/01/26 15:37:38;;;;;;;2.70;0.83;;;;;;;9.37;89.13;100828.78;12193716;19;20151;-80
2024/01/26 15:41:40;;;;;;;3.93;1.27;;;;;;;9.31;79.38;100829.63;12211289;19;20009;-81
2024/01/26 15:45:44;;;;;;;2.20;0.70;;;;;;;9.17;78.32;100844.50;12210479;19;20323;-81
2024/01/26 15:49:46;;;;;;;2.95;1.00;;;;;;;9.11;72.25;100855.28;12184810;19;20025;-80
2024/01/26 15:53:48;;;;;;;8.02;1.13;;;;;;;9.17;69.86;100869.25;12210760;19;20003;-81
2024/01/26 15:57:50;;;;;;;2.15;1.00;;;;;;;9.14;64.66;100887.03;12206836;19;20039;-82
2024/01/26 16:01:52;;;;;;;4.63;0.90;;;;;;;9.12;67.65;100900.97;12186596;19;20581;-81
2024/01/26 16:05:54;;;;;;;3.07;0.90;;;;;;;8.97;67.37;100922.34;12226174;19;20478;-80
2024/01/26 16:09:56;;;;;;;4.00;0.80;;;;;;;8.89;68.25;100934.41;12229680;19;20022;-82
2024/01/26 16:13:58;;;;;;;;;;;;;;;8.73;68.21;100945.81;12208381;19;20018;-81
2024/01/26 16:18:03;;;;;;;4.75;1.23;;;;;;;8.53;69.30;100954.03;12228385;19;19921;-81
2024/01/26 16:22:05;;;;;;;4.63;0.70;;;;;;;8.40;69.41;100968.59;12220883;19;20002;-83
2024/01/26 16:26:07;;;;;;;3.25;2.13;;;;;;;8.26;69.42;100977.78;12198885;19;20006;-82
2024/01/26 16:30:10;;;;;;;6.03;1.00;;;;;;;8.21;71.52;100997.66;12217311;19;20656;-80
2024/01/26 16:34:12;;;;;;;3.80;1.15;;;;;;;7.99;74.64;101018.03;12220919;19;20018;-81
2024/01/26 16:38:16;;;;;;;6.77;0.90;;;;;;;7.92;72.73;101020.75;12193273;19;20019;-82
2024/01/26 16:42:18;;;;;;;5.80;1.10;;;;;;;7.89;73.45;101029.38;12215989;19;20011;-80
2024/01/26 16:46:20;;;;;;;4.50;1.37;;;;;;;7.79;75.75;101042.59;12224291;19;20022;-81
2024/01/26 16:50:22;;;;;;;;;;;;;;;7.68;76.46;101041.28;12197630;19;20009;-82
2024/01/26 16:54:24;;;;;;;5.75;1.20;;;;;;;7.72;74.17;101048.06;12221228;19;19945;-81
2024/01/26 16:58:26;;;;;;;3.03;1.70;;;;;;;7.73;73.24;101065.34;12222010;19;20354;-81
2024/01/26 17:02:28;;;;;;;3.03;1.52;;;;;;;7.71;72.46;101067.47;12196836;19;20565;-83
2024/01/26 17:06:30;;;;;;;8.02;1.67;;;;;;;7.77;72.25;101072.16;12221054;19;20055;-82
2024/01/26 17:10:32;;;;;;;3.58;1.65;;;;;;;7.75;71.83;101075.09;12217252;19;20007;-82
2024/01/26 17:14:34;;;;;;;8.77;1.38;;;;;;;7.71;72.71;101090.28;12194823;19;20007;-82
2024/01/26 17:18:36;;;;;;;3.97;1.10;;;;;;;7.63;71.84;101104.13;12215494;19;20485;-82
2024/01/26 17:22:38;;;;;;;8.77;1.50;;;;;;;7.54;74.07;101106.16;12199221;19;20023;-80
2024/01/26 17:26:42;;;;;;;2.85;1.02;;;;;;;7.39;74.77;101118.28;12220878;19;20013;-81
2024/01/26 17:30:44;;;;;;;3.22;1.20;;;;;;;7.31;75.52;101128.31;12212172;19;20080;-80
2024/01/26 17:34:46;;;;;;;4.30;1.60;;;;;;;7.17;75.25;101139.34;12200415;19;20133;-82
2024/01/26 17:38:48;;;;;;;4.20;1.20;;;;;;;7.17;76.26;101132.00;12218299;19;20075;-81
2024/01/26 17:42:50;;;;;;;2.97;1.10;;;;;;;7.16;75.83;101143.13;12215195;19;20501;-82
2024/01/26 17:46:55;;;;;;;4.10;1.13;;;;;;;6.95;78.16;101147.53;12190574;19;20007;-82
2024/01/26 17:50:56;;;;;;;5.60;1.50;;;;;;;6.89;77.25;101161.19;12206361;19;20013;-83
2024/01/26 17:54:58;;;;;;;2.67;1.00;;;;;;;6.80;79.11;101169.50;12214800;19;20014;-82
2024/01/26 17:59:00;;;;;;;4.53;1.17;;;;;;;6.75;79.78;101177.47;12196063;19;20436;-82
2024/01/26 18:03:02;;;;;;;2.90;1.30;;;;;;;6.78;77.82;101199.00;12207827;19;20017;-84
2024/01/26 18:07:05;;;;;;;8.35;4.95;;;;;;;6.84;77.73;101217.41;12220156;19;19999;-83
2024/01/26 18:11:07;;;;;;;7.80;1.10;;;;;;;6.92;76.56;101230.16;12187505;19;20099;-82
2024/01/26 18:15:09;;;;;;;6.13;1.37;;;;;;;6.90;77.19;101245.06;12216112;19;20015;-83
2024/01/26 18:19:10;;;;;;;8.80;1.60;;;;;;;6.80;78.97;101256.34;12209923;19;20010;-83
2024/01/26 18:23:12;;;;;;;3.92;0.95;;;;;;;6.72;79.08;101270.13;12184279;19;20263;-83